CheckWX is a tool to help pilots better visualize weather data.  It is not intended as a substitute for an official pre-flight weather briefing.

14:51:02 UTC

KSLI TAF
Los Alamitos AAF Airport
Los Alamitos, California, USA
TAF KSLI 231302Z 2313/2419 VRB06KT 9999 SKC QNH3013INS BECMG 2317/2318 VRB06KT 8000 BR BKN010 QNH3011INS BECMG 2404/2405 VRB06KT 4800 BR OVC005 QNH3015INS BECMG 2417/2418 VRB06KT 9999 NSW SKC QNH3021INS TX17/2323Z TN10/2413Z

Mar-23@
13:00 UTC

Mar-23 @ 13:00 UTC

Mar-23@
17:00 UTC

Mar-23 @ 17:00 UTC

TAF KSLI 231302Z 2313/2419 VRB06KT 9999 SKC QNH3013INS
Wind
  • Variable at 6 KTS
Cloud Levels
  • Clear skies

Mar-23@
17:00 UTC

Mar-23 @ 17:00 UTC

Mar-24@
04:00 UTC

Mar-24 @ 04:00 UTC

BECMG 2317/2318 VRB06KT 8000 BR BKN010 QNH3011INS

Becoming

Becoming Conditions expected by Sat, Mar 23, 2019 @ 18:00 UTC

Wind
  • Variable at 6 KTS
Conditions
Mist
Cloud Levels
  • Broken at 1,000' AGL

Mar-24@
04:00 UTC

Mar-24 @ 04:00 UTC

Mar-24@
17:00 UTC

Mar-24 @ 17:00 UTC

BECMG 2404/2405 VRB06KT 4800 BR OVC005 QNH3015INS

Becoming

Becoming Conditions expected by Sun, Mar 24, 2019 @ 05:00 UTC

Wind
  • Variable at 6 KTS
Conditions
Mist
Cloud Levels
  • Overcast at 500' AGL

Mar-24@
17:00 UTC

Mar-24 @ 17:00 UTC

Mar-24@
19:00 UTC

Mar-24 @ 19:00 UTC

BECMG 2417/2418 VRB06KT 9999 NSW SKC QNH3021INS TX17/2323Z TN10/2413Z

Becoming

Becoming Conditions expected by Sun, Mar 24, 2019 @ 18:00 UTC

Wind
  • Variable at 6 KTS
Conditions
No significant weather
Cloud Levels
  • Clear skies